Time;durP1;ratioP1;P1;durP2;ratioP2;P2;SDS_P1;SDS_P2;PMS_P1;PMS_P2;Temp;Humidity;BMP_temperature;BMP_pressure;BME280_temperature;BME280_humidity;BME280_pressure;Samples;Min_cycle;Max_cycle;Signal;HPM_P1;HPM_P2
2022/09/03 00:02:01;;;;;;;;;;;24.90;62.00;;;;;;6244475;28;19963;-40
2022/09/03 00:05:06;;;;;;;;;;;24.90;62.10;;;;;;6249304;28;19931;-43
2022/09/03 00:08:11;;;;;;;;;;;24.80;62.10;;;;;;6254548;28;19936;-40
2022/09/03 00:11:19;;;;;;;;;;;24.50;61.90;;;;;;6256289;28;19932;-42
2022/09/03 00:14:22;;;;;;;;;;;24.90;62.00;;;;;;6249703;28;20811;-41
2022/09/03 00:17:26;;;;;;;;;;;24.90;62.10;;;;;;6233957;28;20830;-41
2022/09/03 00:20:30;;;;;;;;;;;25.30;62.30;;;;;;6250118;28;20005;-40
2022/09/03 00:23:32;;;;;;;;;;;24.80;62.10;;;;;;6228990;28;19932;-40
2022/09/03 00:26:35;;;;;;;;;;;24.80;62.10;;;;;;6254593;28;19997;-43
2022/09/03 00:29:38;;;;;;;;;;;24.70;62.00;;;;;;6251397;28;20039;-40
2022/09/03 00:32:41;;;;;;;;;;;24.50;61.90;;;;;;6249722;28;19939;-40
2022/09/03 00:35:46;;;;;;;;;;;24.70;62.10;;;;;;6238610;28;19928;-43
2022/09/03 00:38:47;;;;;;;;;;;24.40;62.00;;;;;;6251911;28;20128;-41
2022/09/03 00:41:58;;;;;;;;;;;24.80;62.20;;;;;;6253980;28;19974;-43
2022/09/03 00:45:09;;;;;;;;;;;24.90;62.20;;;;;;6247427;28;20001;-43
2022/09/03 00:48:15;;;;;;;;;;;24.90;62.10;;;;;;6247642;28;19932;-40
2022/09/03 00:51:24;;;;;;;;;;;24.80;62.10;;;;;;6250761;28;20030;-39
2022/09/03 00:54:32;;;;;;;;;;;24.60;62.00;;;;;;6249397;28;19924;-42
2022/09/03 00:57:41;;;;;;;;;;;24.90;62.10;;;;;;6255414;28;20629;-40
2022/09/03 01:00:43;;;;;;;;;;;25.00;62.20;;;;;;6258013;28;19932;-43
2022/09/03 01:03:53;;;;;;;;;;;24.90;62.20;;;;;;6254933;28;20002;-44
2022/09/03 01:07:01;;;;;;;;;;;24.50;61.90;;;;;;6255270;28;19957;-40
2022/09/03 01:10:08;;;;;;;;;;;24.40;61.90;;;;;;6259427;28;19932;-40
2022/09/03 01:13:15;;;;;;;;;;;24.40;62.00;;;;;;6253589;28;21097;-40
2022/09/03 01:16:27;;;;;;;;;;;24.80;62.20;;;;;;6247167;28;19928;-40
2022/09/03 01:19:39;;;;;;;;;;;24.80;62.10;;;;;;6249322;28;20692;-40
2022/09/03 01:22:56;;;;;;;;;;;25.30;62.50;;;;;;6250452;28;19954;-42
2022/09/03 01:26:06;;;;;;;;;;;24.60;62.00;;;;;;6248710;28;19945;-40
2022/09/03 01:29:13;;;;;;;;;;;24.30;61.90;;;;;;6235740;28;19932;-42
2022/09/03 01:32:18;;;;;;;;;;;24.50;62.00;;;;;;6250837;28;21648;-42
2022/09/03 01:35:23;;;;;;;;;;;24.70;62.20;;;;;;6256608;28;20031;-40
2022/09/03 01:38:30;;;;;;;;;;;24.60;62.10;;;;;;6256654;28;19932;-40
2022/09/03 01:45:00;;;;;;;;;;;24.70;62.20;;;;;;6255143;28;20563;-42
2022/09/03 01:48:09;;;;;;;;;;;24.80;62.10;;;;;;6232673;28;20631;-40
2022/09/03 01:51:18;;;;;;;;;;;25.50;62.70;;;;;;6227854;28;19929;-40
2022/09/03 01:54:25;;;;;;;;;;;24.70;62.10;;;;;;6234261;28;19932;-43
2022/09/03 01:57:38;;;;;;;;;;;24.50;62.10;;;;;;6254170;28;19935;-42
2022/09/03 02:00:43;;;;;;;;;;;24.60;62.10;;;;;;6251264;28;19936;-41
2022/09/03 02:03:44;;;;;;;;;;;24.50;62.20;;;;;;6240876;28;20021;-43
2022/09/03 02:06:47;;;;;;;;;;;24.40;62.10;;;;;;6259420;28;19927;-43
2022/09/03 02:09:48;;;;;;;;;;;25.20;62.60;;;;;;6251458;28;20049;-40
2022/09/03 02:12:51;;;;;;;;;;;24.60;62.30;;;;;;6249930;28;20953;-42
2022/09/03 02:15:56;;;;;;;;;;;24.60;62.20;;;;;;6250500;28;19971;-42
2022/09/03 02:19:02;;;;;;;;;;;24.80;62.40;;;;;;6246629;28;19932;-40
2022/09/03 02:22:04;;;;;;;;;;;25.10;62.40;;;;;;6250036;28;20114;-41
2022/09/03 02:25:06;;;;;;;;;;;24.70;62.40;;;;;;6248411;28;20047;-39
2022/09/03 02:28:08;;;;;;;;;;;24.50;62.20;;;;;;6251606;28;19986;-41
2022/09/03 02:31:22;;;;;;;;;;;24.70;62.40;;;;;;6254994;28;19931;-40
2022/09/03 02:34:24;;;;;;;;;;;24.50;62.30;;;;;;6240487;28;19931;-40
2022/09/03 02:37:25;;;;;;;;;;;24.70;62.50;;;;;;6249316;28;19940;-41
2022/09/03 02:40:28;;;;;;;;;;;24.50;62.30;;;;;;6247095;28;19933;-39
2022/09/03 02:43:33;;;;;;;;;;;24.50;62.50;;;;;;6245450;28;19932;-40
2022/09/03 02:46:38;;;;;;;;;;;24.50;62.30;;;;;;6246770;28;19932;-40
2022/09/03 02:49:39;;;;;;;;;;;24.40;62.30;;;;;;6246362;28;19965;-42
2022/09/03 02:52:43;;;;;;;;;;;24.90;62.70;;;;;;6230729;28;19972;-41
2022/09/03 02:55:44;;;;;;;;;;;25.00;62.60;;;;;;6250703;28;19932;-40
2022/09/03 02:58:45;;;;;;;;;;;24.50;62.50;;;;;;6246708;28;20112;-40
2022/09/03 03:01:47;;;;;;;;;;;24.70;62.70;;;;;;6225216;28;19939;-40
2022/09/03 03:04:49;;;;;;;;;;;24.50;62.60;;;;;;6243640;28;19931;-40
2022/09/03 03:07:51;;;;;;;;;;;24.50;62.40;;;;;;6243725;28;20172;-40
2022/09/03 03:10:52;;;;;;;;;;;24.70;62.70;;;;;;6245285;28;19974;-39
2022/09/03 03:13:54;;;;;;;;;;;24.80;62.60;;;;;;6244150;28;20455;-40
2022/09/03 03:16:59;;;;;;;;;;;24.90;62.70;;;;;;6237822;28;20648;-39
2022/09/03 03:20:00;;;;;;;;;;;24.70;62.70;;;;;;6245805;28;19989;-41
2022/09/03 03:23:03;;;;;;;;;;;25.10;62.90;;;;;;6244163;28;19975;-40
2022/09/03 03:26:06;;;;;;;;;;;24.30;62.40;;;;;;6241178;28;20054;-40
2022/09/03 03:29:07;;;;;;;;;;;24.50;62.60;;;;;;6233803;28;19932;-40
2022/09/03 03:32:09;;;;;;;;;;;24.70;62.80;;;;;;6237082;28;20054;-40
2022/09/03 03:35:10;;;;;;;;;;;24.50;62.70;;;;;;6237194;28;20282;-43
2022/09/03 03:38:11;;;;;;;;;;;24.80;63.50;;;;;;6235483;28;20175;-40
2022/09/03 03:41:14;;;;;;;;;;;24.40;62.70;;;;;;6236103;28;20232;-40
2022/09/03 03:44:16;;;;;;;;;;;24.60;62.70;;;;;;6219329;28;19932;-41
2022/09/03 03:47:18;;;;;;;;;;;24.40;62.80;;;;;;6233475;28;20169;-40
2022/09/03 03:50:19;;;;;;;;;;;24.70;62.90;;;;;;6236937;28;20119;-40
2022/09/03 03:53:21;;;;;;;;;;;24.90;63.00;;;;;;6242397;28;20029;-39
2022/09/03 03:56:23;;;;;;;;;;;24.50;62.80;;;;;;6233315;28;20229;-40
2022/09/03 03:59:24;;;;;;;;;;;24.30;62.60;;;;;;6219179;28;20989;-40
2022/09/03 04:02:29;;;;;;;;;;;24.70;63.00;;;;;;6232816;28;20019;-43
2022/09/03 04:05:30;;;;;;;;;;;25.00;63.10;;;;;;6237380;28;19935;-40
2022/09/03 04:08:35;;;;;;;;;;;24.60;63.00;;;;;;6240806;28;20045;-40
2022/09/03 04:11:36;;;;;;;;;;;24.40;62.80;;;;;;6241549;28;19970;-40
2022/09/03 04:14:38;;;;;;;;;;;24.40;62.90;;;;;;6227671;28;20049;-40
2022/09/03 04:17:40;;;;;;;;;;;24.40;63.00;;;;;;6234347;28;20452;-40
2022/09/03 04:20:41;;;;;;;;;;;24.60;63.00;;;;;;6233877;28;19932;-40
2022/09/03 04:23:44;;;;;;;;;;;25.10;63.40;;;;;;6238124;28;19938;-40
2022/09/03 04:26:46;;;;;;;;;;;24.70;63.10;;;;;;6230509;28;20070;-40
2022/09/03 04:29:47;;;;;;;;;;;24.30;63.00;;;;;;6228522;28;20260;-40
2022/09/03 04:32:52;;;;;;;;;;;24.80;63.30;;;;;;6234197;28;20312;-39
2022/09/03 04:36:00;;;;;;;;;;;24.70;63.10;;;;;;6229781;28;20310;-41
2022/09/03 04:39:01;;;;;;;;;;;24.50;63.00;;;;;;6226952;28;21290;-41
2022/09/03 04:42:03;;;;;;;;;;;24.50;63.00;;;;;;6230136;28;20255;-40
2022/09/03 04:45:05;;;;;;;;;;;24.80;63.20;;;;;;6237054;28;21426;-39
2022/09/03 04:48:10;;;;;;;;;;;24.60;63.00;;;;;;6237342;28;19939;-39
2022/09/03 04:51:13;;;;;;;;;;;24.30;62.90;;;;;;6237883;28;20748;-40
2022/09/03 04:54:14;;;;;;;;;;;24.70;63.00;;;;;;6232089;28;20130;-40
2022/09/03 04:57:16;;;;;;;;;;;24.20;62.70;;;;;;6234840;28;20632;-40
2022/09/03 05:00:18;;;;;;;;;;;24.70;63.20;;;;;;6228680;28;20854;-40
2022/09/03 05:03:21;;;;;;;;;;;24.90;63.10;;;;;;6234755;28;20205;-40
2022/09/03 05:06:23;;;;;;;;;;;24.30;62.80;;;;;;6213364;28;20041;-40
2022/09/03 05:09:24;;;;;;;;;;;24.70;62.90;;;;;;6234248;28;19928;-40
2022/09/03 05:12:26;;;;;;;;;;;24.40;63.00;;;;;;6235571;28;20273;-41
2022/09/03 05:15:27;;;;;;;;;;;24.70;63.00;;;;;;6239364;28;20567;-42
2022/09/03 05:18:29;;;;;;;;;;;24.30;62.90;;;;;;6241254;28;20149;-40
2022/09/03 05:21:35;;;;;;;;;;;24.70;63.10;;;;;;6237122;28;20619;-40
2022/09/03 05:24:36;;;;;;;;;;;24.60;62.90;;;;;;6230749;28;20059;-40
2022/09/03 05:27:37;;;;;;;;;;;24.70;63.20;;;;;;6231048;28;19932;-40
2022/09/03 05:30:39;;;;;;;;;;;24.70;63.20;;;;;;6235554;28;19940;-40
2022/09/03 05:33:42;;;;;;;;;;;24.70;63.10;;;;;;6233423;28;20939;-40
2022/09/03 05:36:45;;;;;;;;;;;24.40;62.90;;;;;;6233947;28;20478;-41
2022/09/03 05:39:46;;;;;;;;;;;24.50;63.00;;;;;;6233556;28;19928;-42
2022/09/03 05:42:53;;;;;;;;;;;24.60;63.20;;;;;;6234759;28;20411;-40
2022/09/03 05:45:56;;;;;;;;;;;24.70;63.00;;;;;;6246669;28;19928;-40
2022/09/03 05:48:59;;;;;;;;;;;24.30;62.80;;;;;;6241948;28;19929;-39
2022/09/03 05:52:03;;;;;;;;;;;24.70;63.10;;;;;;6242826;28;19944;-40
2022/09/03 05:55:05;;;;;;;;;;;24.70;63.10;;;;;;6243277;28;19928;-40
2022/09/03 05:58:06;;;;;;;;;;;24.70;63.20;;;;;;6243615;28;19928;-40
2022/09/03 06:01:09;;;;;;;;;;;24.30;63.00;;;;;;6223518;28;20189;-40
2022/09/03 06:04:15;;;;;;;;;;;24.50;63.00;;;;;;6206423;28;19940;-40
2022/09/03 06:07:16;;;;;;;;;;;24.40;63.10;;;;;;6222631;28;20347;-40
2022/09/03 06:10:18;;;;;;;;;;;24.60;63.20;;;;;;6227238;28;21373;-40
2022/09/03 06:13:25;;;;;;;;;;;24.10;63.00;;;;;;6224486;28;20638;-40
2022/09/03 06:16:27;;;;;;;;;;;24.40;63.40;;;;;;6223561;28;20444;-40
2022/09/03 06:19:33;;;;;;;;;;;24.40;63.60;;;;;;6220465;28;20573;-40
2022/09/03 06:22:35;;;;;;;;;;;24.30;63.90;;;;;;6236665;28;20067;-40
2022/09/03 06:25:36;;;;;;;;;;;24.40;63.80;;;;;;6226664;28;20277;-39
2022/09/03 06:28:38;;;;;;;;;;;24.10;64.00;;;;;;6228624;28;20234;-40
2022/09/03 06:31:39;;;;;;;;;;;24.10;63.90;;;;;;6230784;28;20129;-40
2022/09/03 06:34:42;;;;;;;;;;;24.50;64.10;;;;;;6226846;28;19939;-40
2022/09/03 06:37:43;;;;;;;;;;;23.90;63.90;;;;;;6225763;28;19942;-40
2022/09/03 06:40:50;;;;;;;;;;;24.20;64.10;;;;;;6211513;28;20561;-40
2022/09/03 06:43:53;;;;;;;;;;;23.90;64.10;;;;;;6230425;28;20496;-42
2022/09/03 06:46:54;;;;;;;;;;;24.20;64.30;;;;;;6216680;28;19932;-39
2022/09/03 06:49:57;;;;;;;;;;;23.90;64.30;;;;;;6235867;28;20055;-40
2022/09/03 06:53:02;;;;;;;;;;;24.20;64.50;;;;;;6248288;28;19939;-40
2022/09/03 06:56:04;;;;;;;;;;;24.30;64.50;;;;;;6252224;28;20010;-41
2022/09/03 06:59:09;;;;;;;;;;;23.80;64.30;;;;;;6230326;28;19931;-40
2022/09/03 07:02:10;;;;;;;;;;;24.00;64.40;;;;;;6244334;28;19959;-43
2022/09/03 07:05:13;;;;;;;;;;;24.00;64.30;;;;;;6242554;28;20013;-42
2022/09/03 07:08:14;;;;;;;;;;;23.60;63.90;;;;;;6239802;28;19924;-42
2022/09/03 07:11:18;;;;;;;;;;;24.00;64.10;;;;;;6239067;28;20750;-41
2022/09/03 07:14:20;;;;;;;;;;;24.20;64.00;;;;;;6220809;28;19940;-40
2022/09/03 07:17:21;;;;;;;;;;;24.00;64.10;;;;;;6238151;28;19939;-40
2022/09/03 07:20:23;;;;;;;;;;;23.80;63.90;;;;;;6241295;28;20760;-41
2022/09/03 07:23:25;;;;;;;;;;;24.10;63.90;;;;;;6242502;28;19997;-42
2022/09/03 07:26:27;;;;;;;;;;;24.00;63.80;;;;;;6244781;28;20023;-41
2022/09/03 07:29:28;;;;;;;;;;;24.10;63.70;;;;;;6235601;28;19952;-40
2022/09/03 07:32:30;;;;;;;;;;;23.90;63.50;;;;;;6232425;28;20573;-40
2022/09/03 07:35:35;;;;;;;;;;;24.20;63.80;;;;;;6228596;28;20309;-40
2022/09/03 07:38:36;;;;;;;;;;;24.20;63.80;;;;;;6224369;28;20376;-40
2022/09/03 07:41:41;;;;;;;;;;;23.70;63.40;;;;;;6223978;28;20330;-40
2022/09/03 07:44:42;;;;;;;;;;;24.10;63.60;;;;;;6228424;28;20425;-40
2022/09/03 07:47:49;;;;;;;;;;;24.30;63.80;;;;;;6227831;28;19932;-40
2022/09/03 07:50:51;;;;;;;;;;;24.10;63.40;;;;;;6228431;28;20502;-40
2022/09/03 07:53:53;;;;;;;;;;;24.60;63.70;;;;;;6226641;28;19932;-40
2022/09/03 07:56:54;;;;;;;;;;;24.40;63.40;;;;;;6231519;28;20929;-40
2022/09/03 07:59:57;;;;;;;;;;;24.00;63.20;;;;;;6231118;28;20123;-42
2022/09/03 08:03:04;;;;;;;;;;;24.60;63.60;;;;;;6224564;28;21572;-40
2022/09/03 08:06:10;;;;;;;;;;;24.60;63.40;;;;;;6227499;28;20149;-39
2022/09/03 08:09:12;;;;;;;;;;;24.30;63.20;;;;;;6226951;28;20380;-40
2022/09/03 08:12:14;;;;;;;;;;;24.80;63.40;;;;;;6205620;28;19975;-40
2022/09/03 08:15:15;;;;;;;;;;;24.20;63.30;;;;;;6222302;28;19928;-40
2022/09/03 08:18:17;;;;;;;;;;;24.40;63.20;;;;;;6232222;28;19932;-40
2022/09/03 08:21:19;;;;;;;;;;;24.50;63.40;;;;;;6227978;28;20196;-40
2022/09/03 08:24:23;;;;;;;;;;;24.40;63.10;;;;;;6232747;28;19932;-40
2022/09/03 08:27:25;;;;;;;;;;;24.70;63.20;;;;;;6239228;28;20784;-40
2022/09/03 08:30:27;;;;;;;;;;;24.60;63.00;;;;;;6233609;28;20036;-40
2022/09/03 08:36:45;;;;;;;;;;;24.50;62.90;;;;;;6231772;28;20857;-41
2022/09/03 08:39:47;;;;;;;;;;;24.90;63.10;;;;;;6231495;28;20093;-40
2022/09/03 08:42:55;;;;;;;;;;;24.50;62.90;;;;;;6240390;28;19971;-40
2022/09/03 08:45:58;;;;;;;;;;;24.30;62.80;;;;;;6250613;28;21774;-40
2022/09/03 08:49:00;;;;;;;;;;;24.70;62.90;;;;;;6240089;28;20593;-40
2022/09/03 08:52:07;;;;;;;;;;;24.60;62.80;;;;;;6241391;28;20801;-40
2022/09/03 08:55:15;;;;;;;;;;;24.50;62.90;;;;;;6224463;28;19932;-42
2022/09/03 08:58:17;;;;;;;;;;;24.70;62.70;;;;;;6213297;28;19932;-42
2022/09/03 09:01:25;;;;;;;;;;;24.50;62.70;;;;;;6245388;28;19930;-40
2022/09/03 09:04:31;;;;;;;;;;;24.30;62.60;;;;;;6246464;28;19932;-40
2022/09/03 09:07:40;;;;;;;;;;;24.60;62.70;;;;;;6244253;28;19928;-45
2022/09/03 09:10:44;;;;;;;;;;;24.30;62.50;;;;;;6246764;28;19934;-41
2022/09/03 09:13:53;;;;;;;;;;;24.40;62.60;;;;;;6248216;28;20051;-40
2022/09/03 09:16:58;;;;;;;;;;;24.80;62.80;;;;;;6248595;28;19938;-41
2022/09/03 09:20:08;;;;;;;;;;;24.70;62.80;;;;;;6249767;28;20751;-40
2022/09/03 09:23:14;;;;;;;;;;;24.90;63.00;;;;;;6251130;28;20870;-40
2022/09/03 09:26:16;;;;;;;;;;;25.10;63.20;;;;;;6249292;28;19997;-40
2022/09/03 09:29:18;;;;;;;;;;;24.80;62.90;;;;;;6238821;28;19964;-43
2022/09/03 09:32:19;;;;;;;;;;;24.50;62.90;;;;;;6241483;28;20062;-44
2022/09/03 09:35:23;;;;;;;;;;;24.30;62.80;;;;;;6245152;28;19944;-40
2022/09/03 09:38:29;;;;;;;;;;;24.50;62.90;;;;;;6242783;28;19978;-40
2022/09/03 09:41:31;;;;;;;;;;;25.10;63.20;;;;;;6240212;28;20063;-40
2022/09/03 09:44:33;;;;;;;;;;;24.80;63.20;;;;;;6239827;28;19932;-40
2022/09/03 09:47:37;;;;;;;;;;;24.40;62.70;;;;;;6227075;28;19970;-44
2022/09/03 09:50:38;;;;;;;;;;;24.50;62.80;;;;;;6234071;28;20865;-42
2022/09/03 09:53:42;;;;;;;;;;;24.80;63.10;;;;;;6228126;28;20688;-42
2022/09/03 09:56:44;;;;;;;;;;;24.70;62.90;;;;;;6205625;28;20045;-39
2022/09/03 09:59:45;;;;;;;;;;;24.50;62.80;;;;;;6224845;28;20278;-40
2022/09/03 10:02:48;;;;;;;;;;;24.60;62.90;;;;;;6221279;28;19954;-41
2022/09/03 10:05:57;;;;;;;;;;;24.40;62.70;;;;;;6210271;28;19928;-41
2022/09/03 10:09:06;;;;;;;;;;;24.50;62.70;;;;;;6243104;28;20132;-40
2022/09/03 10:12:13;;;;;;;;;;;24.50;62.50;;;;;;6238439;28;19936;-40
2022/09/03 10:15:20;;;;;;;;;;;24.60;62.60;;;;;;6210849;28;20120;-40
2022/09/03 10:18:27;;;;;;;;;;;24.90;62.70;;;;;;6225251;28;20211;-39
2022/09/03 10:21:31;;;;;;;;;;;24.70;62.60;;;;;;6222623;28;20189;-41
2022/09/03 10:24:40;;;;;;;;;;;24.60;62.60;;;;;;6228159;28;20656;-42
2022/09/03 10:27:43;;;;;;;;;;;24.70;62.60;;;;;;6225748;28;20316;-40
2022/09/03 10:30:53;;;;;;;;;;;25.00;62.80;;;;;;6226808;28;20631;-40
2022/09/03 10:33:58;;;;;;;;;;;24.70;62.70;;;;;;6244824;28;19933;-42
2022/09/03 10:37:05;;;;;;;;;;;24.50;62.50;;;;;;6247599;28;19938;-40
2022/09/03 10:40:23;;;;;;;;;;;24.50;62.50;;;;;;6245705;28;19938;-39
2022/09/03 10:43:40;;;;;;;;;;;24.90;62.70;;;;;;6244932;28;19928;-42
2022/09/03 10:46:45;;;;;;;;;;;24.50;62.40;;;;;;6238585;28;20127;-40
2022/09/03 10:49:49;;;;;;;;;;;24.90;62.60;;;;;;6230215;28;20328;-42
2022/09/03 10:52:58;;;;;;;;;;;24.50;62.40;;;;;;6209981;28;20380;-42
2022/09/03 10:56:01;;;;;;;;;;;24.70;62.50;;;;;;6224740;28;20196;-40
2022/09/03 10:59:09;;;;;;;;;;;24.90;62.70;;;;;;6230381;28;20739;-40
2022/09/03 11:02:19;;;;;;;;;;;24.80;62.40;;;;;;6225439;28;19932;-40
2022/09/03 11:05:23;;;;;;;;;;;24.80;62.50;;;;;;6227955;28;19943;-40
2022/09/03 11:08:29;;;;;;;;;;;24.80;62.50;;;;;;6228920;28;19997;-40
2022/09/03 11:11:35;;;;;;;;;;;24.60;62.30;;;;;;6221564;28;20286;-40
2022/09/03 11:14:40;;;;;;;;;;;24.70;62.30;;;;;;6223741;28;20216;-40
2022/09/03 11:17:44;;;;;;;;;;;24.50;62.10;;;;;;6210119;28;20363;-40
2022/09/03 11:20:48;;;;;;;;;;;24.70;62.30;;;;;;6234371;28;20222;-40
2022/09/03 11:23:53;;;;;;;;;;;24.60;62.10;;;;;;6233990;28;20055;-41
2022/09/03 11:27:00;;;;;;;;;;;25.00;62.30;;;;;;6227355;28;19967;-41
2022/09/03 11:30:05;;;;;;;;;;;25.30;62.50;;;;;;6224613;28;20216;-40
2022/09/03 11:33:09;;;;;;;;;;;24.90;62.20;;;;;;6230514;28;20491;-40
2022/09/03 11:36:10;;;;;;;;;;;25.30;62.40;;;;;;6213759;28;20143;-40
2022/09/03 11:39:15;;;;;;;;;;;24.70;62.00;;;;;;6211797;28;20135;-40
2022/09/03 11:42:23;;;;;;;;;;;25.10;62.10;;;;;;6224364;28;20657;-41
2022/09/03 11:45:34;;;;;;;;;;;24.80;61.90;;;;;;6233196;28;20226;-42
2022/09/03 11:48:37;;;;;;;;;;;25.10;62.00;;;;;;6234603;28;20754;-40
2022/09/03 11:51:40;;;;;;;;;;;25.30;62.10;;;;;;6203878;28;20041;-40
2022/09/03 11:54:43;;;;;;;;;;;25.10;61.90;;;;;;6228513;28;20566;-40
2022/09/03 11:57:47;;;;;;;;;;;25.20;61.90;;;;;;6226332;28;20566;-39
2022/09/03 12:00:53;;;;;;;;;;;24.90;61.80;;;;;;6221588;28;20322;-40
2022/09/03 12:03:57;;;;;;;;;;;25.10;61.90;;;;;;6224267;28;19934;-40
2022/09/03 12:07:06;;;;;;;;;;;25.20;61.90;;;;;;6213705;28;20741;-40
2022/09/03 12:10:17;;;;;;;;;;;24.70;61.50;;;;;;6225858;28;20137;-41
2022/09/03 12:13:28;;;;;;;;;;;24.90;61.60;;;;;;6235924;28;19932;-40
2022/09/03 12:16:37;;;;;;;;;;;24.80;61.40;;;;;;6232174;28;20057;-41
2022/09/03 12:19:42;;;;;;;;;;;24.90;61.50;;;;;;6232964;28;19932;-40
2022/09/03 12:22:43;;;;;;;;;;;25.40;61.80;;;;;;6231700;28;19928;-40
2022/09/03 12:25:46;;;;;;;;;;;25.00;61.60;;;;;;6229944;28;20286;-40
2022/09/03 12:28:51;;;;;;;;;;;25.30;61.70;;;;;;6206867;28;20514;-42
2022/09/03 12:31:55;;;;;;;;;;;24.90;61.40;;;;;;6223582;28;20198;-42
2022/09/03 12:34:57;;;;;;;;;;;25.30;61.60;;;;;;6207585;28;20048;-40
2022/09/03 12:37:58;;;;;;;;;;;24.70;61.30;;;;;;6208578;28;19966;-43
2022/09/03 12:41:25;;;;;;;;;;;24.90;61.50;;;;;;6228696;28;20376;-40
2022/09/03 12:44:33;;;;;;;;;;;25.40;61.60;;;;;;6216437;28;20400;-40
2022/09/03 12:47:37;;;;;;;;;;;25.10;61.40;;;;;;6224256;28;19971;-39
2022/09/03 12:50:40;;;;;;;;;;;24.90;61.20;;;;;;6228552;28;19932;-40
2022/09/03 12:53:50;;;;;;;;;;;25.30;61.50;;;;;;6228450;28;19932;-41
2022/09/03 12:56:53;;;;;;;;;;;25.10;61.30;;;;;;6231570;28;20219;-40
2022/09/03 13:00:01;;;;;;;;;;;24.90;61.10;;;;;;6234054;28;20166;-40
2022/09/03 13:03:05;;;;;;;;;;;25.30;61.30;;;;;;6233416;28;19932;-40
2022/09/03 13:06:09;;;;;;;;;;;25.40;61.20;;;;;;6228784;28;19979;-43
2022/09/03 13:09:10;;;;;;;;;;;25.00;60.90;;;;;;6231047;28;20090;-40
2022/09/03 13:12:20;;;;;;;;;;;25.20;61.10;;;;;;6235408;28;20184;-40
2022/09/03 13:15:22;;;;;;;;;;;25.30;61.00;;;;;;6231409;28;19932;-40
2022/09/03 13:18:29;;;;;;;;;;;25.50;61.10;;;;;;6232413;28;20026;-40
2022/09/03 13:21:38;;;;;;;;;;;25.30;60.90;;;;;;6228605;28;19932;-42
2022/09/03 13:24:47;;;;;;;;;;;25.10;60.60;;;;;;6224463;28;20147;-40
2022/09/03 13:27:58;;;;;;;;;;;25.30;60.70;;;;;;6220523;28;20477;-40
2022/09/03 13:31:04;;;;;;;;;;;25.40;60.70;;;;;;6230144;28;20317;-40
2022/09/03 13:34:07;;;;;;;;;;;25.40;60.70;;;;;;6235736;28;20574;-40
2022/09/03 13:37:19;;;;;;;;;;;25.70;60.90;;;;;;6224588;28;20764;-41
2022/09/03 13:40:24;;;;;;;;;;;25.10;60.30;;;;;;6218002;28;20640;-40
2022/09/03 13:43:29;;;;;;;;;;;25.60;60.60;;;;;;6229913;28;20267;-41
2022/09/03 13:46:32;;;;;;;;;;;25.30;60.50;;;;;;6237113;28;19959;-40
2022/09/03 13:52:57;;;;;;;;;;;25.60;60.50;;;;;;6230562;28;19932;-40
2022/09/03 13:56:04;;;;;;;;;;;25.40;60.30;;;;;;6208080;28;20186;-40
2022/09/03 13:59:08;;;;;;;;;;;25.40;60.30;;;;;;6225501;28;20103;-40
2022/09/03 14:02:15;;;;;;;;;;;25.10;60.00;;;;;;6208079;28;20020;-40
2022/09/03 14:05:22;;;;;;;;;;;25.40;60.20;;;;;;6213400;28;20453;-40
2022/09/03 14:08:31;;;;;;;;;;;25.60;60.30;;;;;;6225612;28;19939;-40
2022/09/03 14:11:40;;;;;;;;;;;25.50;60.10;;;;;;6222450;28;19943;-40
2022/09/03 14:14:45;;;;;;;;;;;25.40;60.10;;;;;;6221567;28;19932;-40
2022/09/03 14:17:50;;;;;;;;;;;25.40;60.00;;;;;;6232395;28;20611;-40
2022/09/03 14:20:56;;;;;;;;;;;25.70;60.10;;;;;;6223352;28;20366;-40
2022/09/03 14:24:03;;;;;;;;;;;25.80;60.20;;;;;;6227096;28;20054;-40
2022/09/03 14:27:06;;;;;;;;;;;25.70;60.00;;;;;;6228381;28;20262;-41
2022/09/03 14:30:17;;;;;;;;;;;25.40;59.90;;;;;;6222533;28;20231;-40
2022/09/03 14:33:25;;;;;;;;;;;25.80;60.00;;;;;;6210931;28;20689;-42
2022/09/03 14:36:29;;;;;;;;;;;25.50;59.80;;;;;;6225049;28;20194;-42
2022/09/03 14:39:33;;;;;;;;;;;25.20;59.50;;;;;;6229227;28;20238;-40
2022/09/03 14:42:47;;;;;;;;;;;25.50;59.60;;;;;;6219648;28;19950;-40
2022/09/03 14:45:51;;;;;;;;;;;25.70;59.60;;;;;;6226416;28;20249;-40
2022/09/03 14:49:02;;;;;;;;;;;26.00;59.80;;;;;;6210004;28;20458;-40
2022/09/03 14:52:10;;;;;;;;;;;25.40;59.30;;;;;;6229612;28;20573;-40
2022/09/03 14:55:21;;;;;;;;;;;25.50;59.30;;;;;;6230220;28;20028;-40
2022/09/03 14:58:32;;;;;;;;;;;25.80;59.50;;;;;;6220457;28;20025;-40
2022/09/03 15:01:34;;;;;;;;;;;25.90;59.50;;;;;;6223799;28;19931;-39
2022/09/03 15:04:49;;;;;;;;;;;25.80;59.40;;;;;;6231303;28;20196;-40
2022/09/03 15:07:52;;;;;;;;;;;25.50;59.20;;;;;;6214261;28;20023;-41
2022/09/03 15:10:54;;;;;;;;;;;25.70;59.20;;;;;;6213239;28;20972;-40
2022/09/03 15:14:02;;;;;;;;;;;25.60;59.20;;;;;;6228630;28;21073;-40
2022/09/03 15:17:13;;;;;;;;;;;25.60;59.10;;;;;;6229170;28;19932;-39
2022/09/03 15:20:20;;;;;;;;;;;26.10;59.40;;;;;;6227276;28;20022;-41
2022/09/03 15:23:23;;;;;;;;;;;25.90;59.20;;;;;;6212139;28;19982;-40
2022/09/03 15:26:37;;;;;;;;;;;25.50;58.90;;;;;;6228114;28;19932;-42
2022/09/03 15:29:46;;;;;;;;;;;25.60;59.00;;;;;;6234870;28;20101;-40
2022/09/03 15:32:52;;;;;;;;;;;25.50;58.90;;;;;;6225772;28;20047;-40
2022/09/03 15:35:59;;;;;;;;;;;25.90;59.10;;;;;;6222295;28;20449;-40
2022/09/03 15:39:04;;;;;;;;;;;25.80;59.00;;;;;;6222165;28;19998;-40
2022/09/03 15:42:09;;;;;;;;;;;25.80;59.00;;;;;;6204060;28;20272;-40
2022/09/03 15:45:18;;;;;;;;;;;25.30;58.70;;;;;;6225470;28;19975;-40
2022/09/03 15:48:22;;;;;;;;;;;25.50;58.70;;;;;;6232147;28;20361;-40
2022/09/03 15:51:25;;;;;;;;;;;25.60;58.70;;;;;;6222053;28;20293;-40
2022/09/03 15:54:31;;;;;;;;;;;25.80;58.80;;;;;;6224067;28;20696;-40
2022/09/03 15:57:41;;;;;;;;;;;25.90;58.90;;;;;;6212884;28;20429;-40
2022/09/03 16:00:53;;;;;;;;;;;25.90;58.80;;;;;;6227227;28;19975;-40
2022/09/03 16:03:58;;;;;;;;;;;25.60;58.60;;;;;;6221647;28;21046;-42
2022/09/03 16:07:02;;;;;;;;;;;25.40;58.40;;;;;;6216871;28;20165;-40
2022/09/03 16:10:07;;;;;;;;;;;25.60;58.50;;;;;;6227191;28;20196;-40
2022/09/03 16:13:37;;;;;;;;;;;25.70;58.50;;;;;;6200753;28;20572;-40
2022/09/03 16:16:54;;;;;;;;;;;25.70;58.50;;;;;;6221168;28;20004;-40
2022/09/03 16:19:57;;;;;;;;;;;25.70;58.50;;;;;;6220448;28;20711;-40
2022/09/03 16:23:03;;;;;;;;;;;25.70;58.50;;;;;;6221039;28;20433;-40
2022/09/03 16:26:08;;;;;;;;;;;25.90;58.60;;;;;;6216298;28;20066;-40
2022/09/03 16:29:12;;;;;;;;;;;25.50;58.40;;;;;;6222705;28;20195;-40
2022/09/03 16:32:19;;;;;;;;;;;25.50;58.40;;;;;;6216342;28;20052;-40
2022/09/03 16:35:29;;;;;;;;;;;25.70;58.50;;;;;;6222111;28;20540;-43
2022/09/03 16:38:37;;;;;;;;;;;25.40;58.10;;;;;;6227891;28;20252;-40
2022/09/03 16:41:43;;;;;;;;;;;25.40;58.20;;;;;;6219122;28;19947;-40
2022/09/03 16:44:52;;;;;;;;;;;25.70;58.50;;;;;;6204115;28;20184;-40
2022/09/03 16:48:02;;;;;;;;;;;25.30;58.10;;;;;;6225492;28;20180;-39
2022/09/03 16:51:07;;;;;;;;;;;25.80;58.40;;;;;;6223073;28;20641;-40
2022/09/03 16:54:19;;;;;;;;;;;25.60;58.20;;;;;;6206335;28;20556;-40
2022/09/03 16:57:25;;;;;;;;;;;25.80;58.30;;;;;;6226986;28;19974;-39
2022/09/03 17:00:34;;;;;;;;;;;25.70;58.20;;;;;;6224985;28;20317;-40
2022/09/03 17:03:43;;;;;;;;;;;25.80;58.30;;;;;;6220496;28;20504;-40
2022/09/03 17:06:54;;;;;;;;;;;26.00;58.40;;;;;;6222288;28;20854;-40
2022/09/03 17:10:02;;;;;;;;;;;26.00;58.30;;;;;;6222639;28;20024;-40
2022/09/03 17:13:15;;;;;;;;;;;25.40;57.90;;;;;;6206822;28;20345;-40
2022/09/03 17:16:22;;;;;;;;;;;25.30;57.70;;;;;;6223450;28;19980;-40
2022/09/03 17:19:30;;;;;;;;;;;25.70;58.00;;;;;;6227373;28;19932;-40
2022/09/03 17:22:38;;;;;;;;;;;25.60;57.90;;;;;;6226275;28;19932;-40
2022/09/03 17:25:48;;;;;;;;;;;25.80;58.70;;;;;;6228842;28;20272;-40
2022/09/03 17:28:57;;;;;;;;;;;25.90;58.20;;;;;;6227174;28;20108;-40
2022/09/03 17:32:10;;;;;;;;;;;25.50;57.80;;;;;;6224652;28;20016;-43
2022/09/03 17:35:16;;;;;;;;;;;25.40;57.80;;;;;;6226233;28;20747;-40
2022/09/03 17:38:26;;;;;;;;;;;25.60;57.90;;;;;;6222132;28;20591;-40
2022/09/03 17:41:31;;;;;;;;;;;25.50;57.80;;;;;;6223904;28;19979;-40
2022/09/03 17:44:41;;;;;;;;;;;25.70;58.00;;;;;;6225514;28;20154;-43
2022/09/03 17:47:59;;;;;;;;;;;25.40;57.70;;;;;;6226693;28;19932;-40
2022/09/03 17:51:04;;;;;;;;;;;25.70;58.00;;;;;;6232378;28;20030;-40
2022/09/03 17:54:08;;;;;;;;;;;25.50;57.80;;;;;;6228695;28;20062;-40
2022/09/03 17:57:16;;;;;;;;;;;25.20;57.60;;;;;;6225769;28;20170;-40
2022/09/03 18:00:22;;;;;;;;;;;25.80;58.00;;;;;;6227203;28;20462;-43
2022/09/03 18:03:26;;;;;;;;;;;25.30;57.70;;;;;;6229086;28;20063;-43
2022/09/03 18:06:31;;;;;;;;;;;25.50;58.00;;;;;;6230755;28;20806;-40